»·PEaware :: N324PT KLAX-KSAN

N324PT :: KLAX-KSAN

FLIGHT INFORMATION

Flight Status: Arrived
Operator: Privately registered:
United States
More flights under this callsign
Pilot: Pedro T. (27113)
Aircraft: CESSNA 172 SKYHAWK
(C172)
More flights by this aircraft type
Origin: KLAX Los Angeles Intl
United States
Destination: KSAN San Diego Intl-Lindbergh
United States
More flights between these airports :: More routes between these airports
Route: +DCT
File this flight plan on PilotEdge
Remarks:
Altitude:
(Current/Filed)
5,500ft
Speed:
(Current/Filed)
100kts
Departed: 02-Dec-19 08:27 PM
Arrived: 02-Dec-19 09:20 PM
Distance/Time
Traveled:
95nm/0:52
Distance/Time
To Go:
Arrived

Flight Plot

Page will automatically refresh every two minutes.

Flight plan parsing failed; only flown route is shown


Map Options




Map Legend


Flown Route
Filed Route
Departure Airport
Arrival Airport
Navaid (VOR, NDB)
Fix

Horizontal Profiles

Position Reports

Time Latitude Longitude Heading Altitude Ground
Speed
02-Dec-19 20:09 33.933754 -118.394212 89 104ft 0kts
02-Dec-19 20:10 33.933754 -118.394212 89 104ft 0kts
02-Dec-19 20:11 33.933754 -118.394212 89 104ft 0kts
02-Dec-19 20:12 33.933754 -118.394212 89 104ft 0kts
02-Dec-19 20:13 33.933754 -118.394212 89 104ft 0kts
02-Dec-19 20:14 33.933754 -118.394212 89 104ft 0kts
02-Dec-19 20:15 33.933754 -118.394212 89 104ft 0kts
02-Dec-19 20:16 33.933754 -118.394212 89 104ft 0kts
02-Dec-19 20:17 33.933754 -118.394212 89 104ft 0kts
02-Dec-19 20:18 33.934071 -118.394107 356 104ft 0kts
02-Dec-19 20:19 33.934071 -118.394107 356 104ft 0kts
02-Dec-19 20:20 33.934071 -118.394106 356 104ft 0kts
02-Dec-19 20:21 33.935100 -118.393760 8 103ft 0kts
02-Dec-19 20:22 33.935513 -118.388770 86 99ft 16kts
02-Dec-19 20:23 33.935986 -118.384100 81 98ft 12kts
02-Dec-19 20:24 33.936459 -118.382821 13 96ft 0kts
02-Dec-19 20:25 33.936996 -118.382901 336 96ft 10kts
02-Dec-19 20:26 33.935239 -118.403038 263 459ft 97kts
02-Dec-19 20:27 33.931537 -118.438230 265 1079ft 112kts
02-Dec-19 20:28 33.904175 -118.446395 171 1569ft 122kts
02-Dec-19 20:29 33.870880 -118.437838 170 2069ft 121kts
02-Dec-19 20:31 33.838835 -118.426696 151 2567ft 121kts
02-Dec-19 20:32 33.816374 -118.397175 120 3065ft 123kts
02-Dec-19 20:33 33.800539 -118.360506 120 3565ft 123kts
02-Dec-19 20:34 33.783938 -118.321810 120 3586ft 127kts
02-Dec-19 20:35 33.767751 -118.283857 119 3566ft 127kts
02-Dec-19 20:36 33.751883 -118.246592 119 4063ft 124kts
02-Dec-19 20:37 33.731826 -118.213285 135 4560ft 123kts
02-Dec-19 20:38 33.707635 -118.184313 142 5056ft 123kts
02-Dec-19 20:39 33.681216 -118.157946 143 5492ft 128kts
02-Dec-19 20:40 33.651922 -118.129191 143 5511ft 140kts
02-Dec-19 20:41 33.621332 -118.099583 143 5511ft 141kts
02-Dec-19 20:42 33.592059 -118.071555 142 5509ft 128kts
02-Dec-19 20:43 33.564063 -118.045155 141 5508ft 128kts
02-Dec-19 20:44 33.538577 -118.020405 137 5506ft 112kts
02-Dec-19 20:45 33.516476 -117.992919 115 5506ft 119kts
02-Dec-19 20:46 33.504383 -117.955345 112 5504ft 121kts
02-Dec-19 20:47 33.492568 -117.917045 113 5503ft 122kts
02-Dec-19 20:48 33.479951 -117.879282 114 5502ft 122kts
02-Dec-19 20:49 33.467377 -117.841229 114 5502ft 122kts
02-Dec-19 20:50 33.452198 -117.805314 135 5503ft 120kts
02-Dec-19 20:50 33.432353 -117.781866 137 5506ft 119kts
02-Dec-19 20:52 33.404127 -117.749847 136 5510ft 119kts
02-Dec-19 20:52 33.382452 -117.729167 146 5512ft 119kts
02-Dec-19 20:53 33.354238 -117.707974 146 5515ft 119kts
02-Dec-19 20:55 33.321256 -117.683442 146 5517ft 119kts
02-Dec-19 20:55 33.297655 -117.665942 146 5518ft 119kts
02-Dec-19 20:56 33.269414 -117.644999 146 5519ft 120kts
02-Dec-19 20:57 33.243072 -117.620688 144 5519ft 119kts
02-Dec-19 20:58 33.215147 -117.598868 144 5519ft 119kts
02-Dec-19 20:59 33.187216 -117.576937 144 5518ft 120kts
02-Dec-19 21:00 33.159444 -117.554982 143 5516ft 120kts
02-Dec-19 21:01 33.132949 -117.530490 140 5514ft 119kts
02-Dec-19 21:02 33.107186 -117.505421 128 5316ft 118kts
02-Dec-19 21:03 33.087795 -117.473825 125 4804ft 118kts
02-Dec-19 21:04 33.066853 -117.440385 125 4305ft 131kts
02-Dec-19 21:05 33.044945 -117.405184 124 3996ft 131kts
02-Dec-19 21:06 33.022790 -117.370346 142 3992ft 131kts
02-Dec-19 21:07 32.992748 -117.343753 144 3743ft 139kts
02-Dec-19 21:08 32.961309 -117.316605 143 3246ft 139kts
02-Dec-19 21:09 32.930484 -117.290231 143 2988ft 130kts
02-Dec-19 21:10 32.901086 -117.264977 143 3392ft 128kts
02-Dec-19 21:11 32.871253 -117.239076 143 3490ft 133kts
02-Dec-19 21:12 32.839800 -117.216384 158 3460ft 133kts
02-Dec-19 21:13 32.804811 -117.205759 168 2906ft 128kts
02-Dec-19 21:14 32.770214 -117.195310 149 2168ft 125kts
02-Dec-19 21:15 32.749478 -117.165718 113 1590ft 123kts
02-Dec-19 21:16 32.731237 -117.147016 201 1171ft 85kts
02-Dec-19 21:17 32.727694 -117.165629 286 408ft 56kts
02-Dec-19 21:18 32.732317 -117.184518 286 15ft 49kts
02-Dec-19 21:19 32.734653 -117.190737 37 17ft 11kts
02-Dec-19 21:20 32.734764 -117.189909 105 17ft 0kts
02-Dec-19 21:21 32.734453 -117.188614 106 17ft 12kts
02-Dec-19 21:22 32.733416 -117.184346 105 17ft 14kts
02-Dec-19 21:23 32.732503 -117.180589 103 17ft 5kts
02-Dec-19 21:24 32.732885 -117.179555 44 20ft 4kts
02-Dec-19 21:25 32.732878 -117.178534 275 20ft 3kts

Navigation Log

Ident Type
Flight plan parsing failed, navigation log unavailable